Catàleg de serveis del Meteocat
Campanya meteocatpedra

Dades de l'estació automàtica el Poal

?
?
Resum diari 21:30 TU
Dades diàries de l'estació meteorològica
Temperatura mitjana 7.5 °C
Temperatura màxima 12.6 °C 14:57 TU
Temperatura mínima 2.4 °C 2:59 TU
Humitat relativa mitjana 84%
Precipitació acumulada 0.4 mm
Ratxa màxima del vent (2 m) 24.5 km/h - 244º 17:47 TU
Irradiació solar global 7.7 MJ/m2

El tram horari està expressat en Temps Universal (TU). Cal sumar una hora en horari d'hivern i dues en horari d'estiu per passar a l'hora oficial.

el Poal

Metadades estació meteorol´gica
Municipi El Poal
Comarca Pla d'Urgell
Altitud 223 m
Data alta 14.09.1989
Estat actual Operativa
Dades de període
Període
TU
TM
°C
TX
°C
TN
°C
HRM
%
PPT
mm
VVM (2 m)
km/h
DVM (2 m)
graus
VVX (2 m)
km/h
RS
W/m2
00:00 - 00:30 5.8 6.7 4.9 89 0.0 2.2 218 3.6 0
00:30 - 01:00 4.2 4.8 3.7 94 0.0 1.4 81 3.2 0
01:00 - 01:30 3.4 3.8 2.9 96 0.0 1.1 120 2.9 0
01:30 - 02:00 2.8 3.3 2.5 97 0.0 1.1 83 2.9 0
02:00 - 02:30 2.6 2.7 2.5 97 0.0 1.8 58 4.3 0
02:30 - 03:00 2.6 2.7 2.4 97 0.0 0.7 65 2.5 0
03:00 - 03:30 2.6 2.7 2.5 97 0.0 1.4 71 3.2 0
03:30 - 04:00 3.0 3.2 2.7 97 0.0 1.4 75 3.6 0
04:00 - 04:30 3.7 4.1 3.3 97 0.0 2.5 35 6.1 0
04:30 - 05:00 4.2 4.3 4.1 96 0.0 2.9 44 5.8 0
05:00 - 05:30 4.7 5.0 4.3 95 0.0 2.9 51 5.8 0
05:30 - 06:00 5.1 5.2 5.0 94 0.0 1.4 53 5.4 0
06:00 - 06:30 5.4 5.6 5.2 94 0.0 3.2 40 8.3 0
06:30 - 07:00 5.7 5.7 5.6 92 0.0 3.6 49 10.1 0
07:00 - 07:30 5.9 6.0 5.8 91 0.2 4.0 76 11.5 4
07:30 - 08:00 6.1 6.2 6.0 94 0.2 2.5 107 5.4 22
08:00 - 08:30 6.7 7.2 6.2 94 0.0 1.8 43 7.2 111
08:30 - 09:00 7.0 7.1 6.9 91 0.0 4.0 312 7.6 66
09:00 - 09:30 7.1 7.1 7.0 92 0.0 4.3 290 7.2 58
09:30 - 10:00 7.1 7.3 7.0 92 0.0 2.5 199 8.3 62
10:00 - 10:30 7.6 8.0 7.3 89 0.0 3.2 212 6.5 139
10:30 - 11:00 8.5 8.8 8.0 84 0.0 5.8 229 9.0 316
11:00 - 11:30 9.2 9.7 8.8 84 0.0 8.3 232 13.0 446
11:30 - 12:00 10.4 10.9 9.7 79 0.0 5.8 230 12.6 541
12:00 - 12:30 11.1 11.6 10.6 73 0.0 5.8 237 13.0 512
12:30 - 13:00 11.4 12.0 10.9 73 0.0 6.8 229 13.0 417
13:00 - 13:30 11.4 12.1 10.7 74 0.0 8.3 222 15.8 384
13:30 - 14:00 11.8 12.4 11.3 74 0.0 11.2 222 20.5 378
14:00 - 14:30 12.1 12.3 11.9 72 0.0 10.1 219 16.6 346
14:30 - 15:00 12.3 12.6 12.1 73 0.0 8.6 223 18.4 257
15:00 - 15:30 12.3 12.4 12.3 74 0.0 8.6 224 14.8 171
15:30 - 16:00 12.2 12.3 12.0 76 0.0 5.4 217 9.7 95
16:00 - 16:30 11.5 12.1 10.6 79 0.0 1.4 140 4.0 29
16:30 - 17:00 9.2 10.5 8.2 89 0.0 1.4 134 5.4 0
17:00 - 17:30 8.4 9.7 6.9 84 0.0 6.1 230 15.5 0
17:30 - 18:00 9.9 10.5 9.5 70 0.0 13.0 230 24.5 0
18:00 - 18:30 9.9 10.2 9.1 68 0.0 10.4 207 18.7 0
18:30 - 19:00 9.1 9.5 8.8 69 0.0 12.2 218 18.0 0
19:00 - 19:30 9.2 9.6 8.6 67 0.0 9.7 223 21.2 0
19:30 - 20:00 8.5 9.0 8.2 69 0.0 6.5 240 12.6 0
20:00 - 20:30 7.9 8.4 7.6 70 0.0 3.6 180 9.0 0
20:30 - 21:00 7.0 7.7 6.6 75 0.0 5.8 212 11.5 0
21:00 - 21:30 7.2 7.5 6.7 76 0.0 6.1 221 12.2 0
21:30 - 22:00 6.7 7.0 6.4 78 0.0 3.2 206 4.3 0

Les dades en taronja només han passat un control de qualitat automàtic. Resta pendent la seva validació definitiva.